sensor_id;sensor_type;location;lat;lon;timestamp;pressure;altitude;pressure_sealevel;temperature;humidity
38033;BME280;23841;48.524;1.342;2023-05-03T00:00:18;100016.16;;;17.04;52.94
38033;BME280;23841;48.524;1.342;2023-05-03T00:02:45;100014.41;;;17.03;52.72
38033;BME280;23841;48.524;1.342;2023-05-03T00:05:11;100008.16;;;17.03;52.65
38033;BME280;23841;48.524;1.342;2023-05-03T00:07:37;100016.16;;;17.04;52.95
38033;BME280;23841;48.524;1.342;2023-05-03T00:10:04;100015.34;;;17.02;52.88
38033;BME280;23841;48.524;1.342;2023-05-03T00:12:31;100015.34;;;17.02;52.67
38033;BME280;23841;48.524;1.342;2023-05-03T00:14:56;100000.41;;;16.95;52.72
38033;BME280;23841;48.524;1.342;2023-05-03T00:17:21;100013.59;;;17.01;52.67
38033;BME280;23841;48.524;1.342;2023-05-03T00:19:47;100022.56;;;17.00;52.46
38033;BME280;23841;48.524;1.342;2023-05-03T00:22:12;99998.66;;;16.94;52.67
38033;BME280;23841;48.524;1.342;2023-05-03T00:24:38;100017.19;;;17.00;52.46
38033;BME280;23841;48.524;1.342;2023-05-03T00:27:04;100020.94;;;16.96;52.71
38033;BME280;23841;48.524;1.342;2023-05-03T00:29:29;100023.53;;;16.99;52.43
38033;BME280;23841;48.524;1.342;2023-05-03T00:31:55;100019.06;;;16.98;52.58
38033;BME280;23841;48.524;1.342;2023-05-03T00:34:20;100005.66;;;16.98;52.57
38033;BME280;23841;48.524;1.342;2023-05-03T00:36:45;100008.41;;;16.97;52.57
38033;BME280;23841;48.524;1.342;2023-05-03T00:39:11;100008.47;;;16.95;52.63
38033;BME280;23841;48.524;1.342;2023-05-03T00:41:38;100009.34;;;16.96;52.49
38033;BME280;23841;48.524;1.342;2023-05-03T00:44:03;100007.69;;;16.92;52.44
38033;BME280;23841;48.524;1.342;2023-05-03T00:46:29;100003.19;;;16.92;52.56
38033;BME280;23841;48.524;1.342;2023-05-03T00:48:55;100005.88;;;16.92;52.29
38033;BME280;23841;48.524;1.342;2023-05-03T00:51:21;100015.75;;;16.92;52.46
38033;BME280;23841;48.524;1.342;2023-05-03T00:53:46;100021.03;;;16.93;52.33
38033;BME280;23841;48.524;1.342;2023-05-03T00:56:17;100014.88;;;16.91;52.28
38033;BME280;23841;48.524;1.342;2023-05-03T00:58:45;100014.88;;;16.91;52.21
38033;BME280;23841;48.524;1.342;2023-05-03T01:01:11;100020.28;;;16.89;52.23
38033;BME280;23841;48.524;1.342;2023-05-03T01:03:37;100009.53;;;16.89;52.17
38033;BME280;23841;48.524;1.342;2023-05-03T01:16:56;100015.94;;;16.85;51.89
38033;BME280;23841;48.524;1.342;2023-05-03T01:19:28;100021.31;;;16.85;51.91
38033;BME280;23841;48.524;1.342;2023-05-03T01:24:50;100013.28;;;16.84;51.71
38033;BME280;23841;48.524;1.342;2023-05-03T01:27:19;100019.59;;;16.83;51.83
38033;BME280;23841;48.524;1.342;2023-05-03T01:29:44;100016.97;;;16.81;51.74
38033;BME280;23841;48.524;1.342;2023-05-03T01:32:15;100017.84;;;16.82;51.55
38033;BME280;23841;48.524;1.342;2023-05-03T01:38:04;100018.03;;;16.77;52.22
38033;BME280;23841;48.524;1.342;2023-05-03T01:40:34;100002.78;;;16.78;51.82
38033;BME280;23841;48.524;1.342;2023-05-03T01:43:03;100004.63;;;16.76;51.50
38033;BME280;23841;48.524;1.342;2023-05-03T01:45:29;100000.16;;;16.76;51.72
38033;BME280;23841;48.524;1.342;2023-05-03T01:47:55;100004.69;;;16.74;51.70
38033;BME280;23841;48.524;1.342;2023-05-03T01:50:21;100001.16;;;16.73;51.85
38033;BME280;23841;48.524;1.342;2023-05-03T01:52:48;100001.16;;;16.73;51.71
38033;BME280;23841;48.524;1.342;2023-05-03T01:55:16;100001.16;;;16.73;51.75
38033;BME280;23841;48.524;1.342;2023-05-03T01:57:42;99997.69;;;16.70;51.71
38033;BME280;23841;48.524;1.342;2023-05-03T02:00:08;99991.47;;;16.69;51.64
38033;BME280;23841;48.524;1.342;2023-05-03T02:02:34;99997.75;;;16.68;51.58
38033;BME280;23841;48.524;1.342;2023-05-03T02:04:59;99992.38;;;16.68;52.38
38033;BME280;23841;48.524;1.342;2023-05-03T02:07:24;99988.88;;;16.66;51.51
38033;BME280;23841;48.524;1.342;2023-05-03T02:09:50;99993.38;;;16.66;51.14
38033;BME280;23841;48.524;1.342;2023-05-03T02:12:16;100003.22;;;16.65;51.38
38033;BME280;23841;48.524;1.342;2023-05-03T02:14:41;99996.09;;;16.64;51.28
38033;BME280;23841;48.524;1.342;2023-05-03T02:17:06;99997.84;;;16.65;51.51
38033;BME280;23841;48.524;1.342;2023-05-03T02:19:32;99990.75;;;16.64;50.92
38033;BME280;23841;48.524;1.342;2023-05-03T02:21:57;99997.91;;;16.64;50.82
38033;BME280;23841;48.524;1.342;2023-05-03T02:24:23;99998.78;;;16.64;50.88
38033;BME280;23841;48.524;1.342;2023-05-03T02:26:48;99992.63;;;16.62;50.77
38033;BME280;23841;48.524;1.342;2023-05-03T02:29:14;99990.78;;;16.63;50.64
38033;BME280;23841;48.524;1.342;2023-05-03T02:31:40;99981.00;;;16.62;50.71
38033;BME280;23841;48.524;1.342;2023-05-03T02:34:05;99983.91;;;16.55;51.56
38033;BME280;23841;48.524;1.342;2023-05-03T02:36:31;99988.28;;;16.58;50.74
38033;BME280;23841;48.524;1.342;2023-05-03T02:38:56;99982.94;;;16.58;50.69
38033;BME280;23841;48.524;1.342;2023-05-03T02:41:21;99979.38;;;16.58;50.71
38033;BME280;23841;48.524;1.342;2023-05-03T02:43:47;99978.47;;;16.57;50.55
38033;BME280;23841;48.524;1.342;2023-05-03T02:46:12;99974.09;;;16.54;50.65
38033;BME280;23841;48.524;1.342;2023-05-03T02:48:38;99977.69;;;16.55;50.86
38033;BME280;23841;48.524;1.342;2023-05-03T02:51:04;99978.59;;;16.54;50.68
38033;BME280;23841;48.524;1.342;2023-05-03T02:53:29;99973.22;;;16.54;50.93
38033;BME280;23841;48.524;1.342;2023-05-03T02:55:55;99963.50;;;16.51;50.40
38033;BME280;23841;48.524;1.342;2023-05-03T02:58:21;99976.84;;;16.53;50.30
38033;BME280;23841;48.524;1.342;2023-05-03T03:00:46;99966.22;;;16.50;50.55
38033;BME280;23841;48.524;1.342;2023-05-03T03:03:12;99968.91;;;16.50;50.42
38033;BME280;23841;48.524;1.342;2023-05-03T03:05:37;99965.41;;;16.48;50.23
38033;BME280;23841;48.524;1.342;2023-05-03T03:08:03;99963.59;;;16.48;50.23
38033;BME280;23841;48.524;1.342;2023-05-03T03:10:28;99954.72;;;16.46;50.31
38033;BME280;23841;48.524;1.342;2023-05-03T03:12:54;99958.34;;;16.45;50.39
38033;BME280;23841;48.524;1.342;2023-05-03T03:15:19;99951.19;;;16.46;50.39
38033;BME280;23841;48.524;1.342;2023-05-03T03:17:45;99947.63;;;16.45;50.48
38033;BME280;23841;48.524;1.342;2023-05-03T03:20:10;99944.06;;;16.45;50.30
38033;BME280;23841;48.524;1.342;2023-05-03T03:22:39;99932.66;;;16.38;50.02
38033;BME280;23841;48.524;1.342;2023-05-03T03:25:06;99940.56;;;16.43;50.01
38033;BME280;23841;48.524;1.342;2023-05-03T03:27:32;99939.72;;;16.41;50.04
38033;BME280;23841;48.524;1.342;2023-05-03T03:29:58;99944.28;;;16.38;50.07
38033;BME280;23841;48.524;1.342;2023-05-03T03:32:23;99943.38;;;16.38;50.18
38033;BME280;23841;48.524;1.342;2023-05-03T03:34:49;99947.84;;;16.39;50.05
38033;BME280;23841;48.524;1.342;2023-05-03T03:37:15;99948.72;;;16.40;50.05
38033;BME280;23841;48.524;1.342;2023-05-03T03:39:40;99946.97;;;16.38;50.06
38033;BME280;23841;48.524;1.342;2023-05-03T03:42:07;99931.84;;;16.36;49.85
38033;BME280;23841;48.524;1.342;2023-05-03T03:44:33;99932.66;;;16.38;49.88
38033;BME280;23841;48.524;1.342;2023-05-03T03:46:58;99923.75;;;16.37;49.79
38033;BME280;23841;48.524;1.342;2023-05-03T03:49:23;99923.88;;;16.34;49.96
38033;BME280;23841;48.524;1.342;2023-05-03T03:51:49;99918.50;;;16.34;49.90
38033;BME280;23841;48.524;1.342;2023-05-03T03:54:15;99916.88;;;16.30;49.92
38033;BME280;23841;48.524;1.342;2023-05-03T03:56:40;99906.31;;;16.26;49.97
38033;BME280;23841;48.524;1.342;2023-05-03T03:59:06;99911.44;;;16.32;49.80
38033;BME280;23841;48.524;1.342;2023-05-03T04:01:32;99904.56;;;16.25;49.77
38033;BME280;23841;48.524;1.342;2023-05-03T04:03:58;99910.66;;;16.28;49.80
38033;BME280;23841;48.524;1.342;2023-05-03T04:06:23;99911.63;;;16.27;49.84
38033;BME280;23841;48.524;1.342;2023-05-03T04:08:49;99908.00;;;16.28;49.80
38033;BME280;23841;48.524;1.342;2023-05-03T04:11:14;99905.41;;;16.25;49.91
38033;BME280;23841;48.524;1.342;2023-05-03T04:13:39;99911.69;;;16.26;49.95
38033;BME280;23841;48.524;1.342;2023-05-03T04:16:06;99904.50;;;16.26;49.70
38033;BME280;23841;48.524;1.342;2023-05-03T04:18:32;99900.06;;;16.25;49.70
38033;BME280;23841;48.524;1.342;2023-05-03T04:20:57;99901.94;;;16.23;49.44
38033;BME280;23841;48.524;1.342;2023-05-03T04:23:23;99904.69;;;16.21;49.55
38033;BME280;23841;48.524;1.342;2023-05-03T04:25:48;99911.75;;;16.23;50.12
38033;BME280;23841;48.524;1.342;2023-05-03T04:28:14;99909.19;;;16.19;49.95
38033;BME280;23841;48.524;1.342;2023-05-03T04:30:40;99896.72;;;16.18;49.63
38033;BME280;23841;48.524;1.342;2023-05-03T04:33:08;99889.78;;;16.13;49.74
38033;BME280;23841;48.524;1.342;2023-05-03T04:35:33;99901.34;;;16.15;49.63
38033;BME280;23841;48.524;1.342;2023-05-03T04:38:00;99899.56;;;16.14;49.60
38033;BME280;23841;48.524;1.342;2023-05-03T04:40:27;99903.09;;;16.16;49.47
38033;BME280;23841;48.524;1.342;2023-05-03T04:42:52;99904.00;;;16.15;49.61
38033;BME280;23841;48.524;1.342;2023-05-03T04:45:18;99920.16;;;16.13;49.62
38033;BME280;23841;48.524;1.342;2023-05-03T04:47:45;99905.09;;;16.09;49.49
38033;BME280;23841;48.524;1.342;2023-05-03T04:50:11;99915.72;;;16.12;49.36
38033;BME280;23841;48.524;1.342;2023-05-03T04:52:36;99923.81;;;16.11;49.22
38033;BME280;23841;48.524;1.342;2023-05-03T04:55:02;99915.88;;;16.08;49.14
38033;BME280;23841;48.524;1.342;2023-05-03T04:57:27;99920.34;;;16.07;49.50
38033;BME280;23841;48.524;1.342;2023-05-03T04:59:54;99919.47;;;16.07;49.10
38033;BME280;23841;48.524;1.342;2023-05-03T05:02:20;99917.66;;;16.07;49.18
38033;BME280;23841;48.524;1.342;2023-05-03T05:04:45;99924.84;;;16.07;49.14
38033;BME280;23841;48.524;1.342;2023-05-03T05:07:12;99923.06;;;16.06;49.18
38033;BME280;23841;48.524;1.342;2023-05-03T05:09:39;99924.00;;;16.04;49.03
38033;BME280;23841;48.524;1.342;2023-05-03T05:12:04;99924.94;;;16.03;49.28
38033;BME280;23841;48.524;1.342;2023-05-03T05:14:30;99929.41;;;16.03;49.01
38033;BME280;23841;48.524;1.342;2023-05-03T05:16:56;99922.31;;;16.02;49.13
38033;BME280;23841;48.524;1.342;2023-05-03T05:19:22;99924.09;;;16.01;49.06
38033;BME280;23841;48.524;1.342;2023-05-03T05:21:47;99922.34;;;16.00;49.14
38033;BME280;23841;48.524;1.342;2023-05-03T05:24:12;99925.13;;;15.97;49.27
38033;BME280;23841;48.524;1.342;2023-05-03T05:26:38;99924.22;;;15.98;49.10
38033;BME280;23841;48.524;1.342;2023-05-03T05:29:05;99920.69;;;15.96;49.34
38033;BME280;23841;48.524;1.342;2023-05-03T05:31:31;99921.66;;;15.95;49.33
38033;BME280;23841;48.524;1.342;2023-05-03T05:33:56;99913.66;;;15.94;49.29
38033;BME280;23841;48.524;1.342;2023-05-03T05:36:22;99925.25;;;15.94;49.14
38033;BME280;23841;48.524;1.342;2023-05-03T05:38:47;99925.25;;;15.94;49.20
38033;BME280;23841;48.524;1.342;2023-05-03T05:41:13;99926.16;;;15.93;49.22
38033;BME280;23841;48.524;1.342;2023-05-03T05:43:38;99928.91;;;15.92;49.15
38033;BME280;23841;48.524;1.342;2023-05-03T05:46:03;99930.72;;;15.91;49.32
38033;BME280;23841;48.524;1.342;2023-05-03T05:48:29;99930.72;;;15.91;49.18
38033;BME280;23841;48.524;1.342;2023-05-03T05:50:54;99932.56;;;15.89;49.28
38033;BME280;23841;48.524;1.342;2023-05-03T05:53:20;99937.91;;;15.89;49.38
38033;BME280;23841;48.524;1.342;2023-05-03T05:55:45;99939.78;;;15.87;49.40
38033;BME280;23841;48.524;1.342;2023-05-03T05:58:11;99945.16;;;15.87;49.36
38033;BME280;23841;48.524;1.342;2023-05-03T06:00:37;99946.00;;;15.87;49.39
38033;BME280;23841;48.524;1.342;2023-05-03T06:03:04;99940.72;;;15.86;49.46
38033;BME280;23841;48.524;1.342;2023-05-03T06:05:30;99932.88;;;15.80;49.59
38033;BME280;23841;48.524;1.342;2023-05-03T06:07:55;99946.13;;;15.84;49.67
38033;BME280;23841;48.524;1.342;2023-05-03T06:10:20;99947.94;;;15.84;49.70
38033;BME280;23841;48.524;1.342;2023-05-03T06:12:46;99945.25;;;15.84;49.62
38033;BME280;23841;48.524;1.342;2023-05-03T06:15:11;99950.69;;;15.81;49.66
38033;BME280;23841;48.524;1.342;2023-05-03T06:17:37;99953.34;;;15.82;49.77
38033;BME280;23841;48.524;1.342;2023-05-03T06:20:03;99943.59;;;15.80;49.73
38033;BME280;23841;48.524;1.342;2023-05-03T06:22:28;99933.88;;;15.76;49.73
38033;BME280;23841;48.524;1.342;2023-05-03T06:24:54;99940.94;;;15.78;49.91
38033;BME280;23841;48.524;1.342;2023-05-03T06:27:20;99938.28;;;15.77;49.79
38033;BME280;23841;48.524;1.342;2023-05-03T06:29:46;99940.06;;;15.78;49.77
38033;BME280;23841;48.524;1.342;2023-05-03T06:32:12;99922.31;;;15.74;49.88
38033;BME280;23841;48.524;1.342;2023-05-03T06:34:37;99924.19;;;15.72;50.11
38033;BME280;23841;48.524;1.342;2023-05-03T06:37:03;99921.47;;;15.73;50.07
38033;BME280;23841;48.524;1.342;2023-05-03T06:39:29;99922.38;;;15.72;50.22
38033;BME280;23841;48.524;1.342;2023-05-03T06:41:55;99922.38;;;15.72;50.32
38033;BME280;23841;48.524;1.342;2023-05-03T06:44:20;99922.31;;;15.74;50.39
38033;BME280;23841;48.524;1.342;2023-05-03T06:46:45;99921.50;;;15.72;50.40
38033;BME280;23841;48.524;1.342;2023-05-03T06:49:11;99918.00;;;15.69;50.44
38033;BME280;23841;48.524;1.342;2023-05-03T06:51:36;99926.88;;;15.72;50.57
38033;BME280;23841;48.524;1.342;2023-05-03T06:54:02;99919.75;;;15.70;50.48
38033;BME280;23841;48.524;1.342;2023-05-03T06:56:34;99919.75;;;15.70;50.79
38033;BME280;23841;48.524;1.342;2023-05-03T06:59:00;99922.53;;;15.67;50.79
38033;BME280;23841;48.524;1.342;2023-05-03T07:01:26;99918.97;;;15.67;50.88
38033;BME280;23841;48.524;1.342;2023-05-03T07:03:52;99918.94;;;15.68;50.90
38033;BME280;23841;48.524;1.342;2023-05-03T07:06:17;99913.63;;;15.67;51.11
38033;BME280;23841;48.524;1.342;2023-05-03T07:08:43;99918.09;;;15.66;51.28
38033;BME280;23841;48.524;1.342;2023-05-03T07:11:09;99908.31;;;15.65;51.16
38033;BME280;23841;48.524;1.342;2023-05-03T07:13:35;99904.94;;;15.60;51.29
38033;BME280;23841;48.524;1.342;2023-05-03T07:16:00;99911.94;;;15.64;51.31
38033;BME280;23841;48.524;1.342;2023-05-03T07:18:25;99911.94;;;15.64;51.49
38033;BME280;23841;48.524;1.342;2023-05-03T07:20:51;99903.00;;;15.64;51.49
38033;BME280;23841;48.524;1.342;2023-05-03T07:23:18;99904.72;;;15.66;51.58
38033;BME280;23841;48.524;1.342;2023-05-03T07:25:44;99899.47;;;15.63;51.64
38033;BME280;23841;48.524;1.342;2023-05-03T07:28:13;99902.94;;;15.65;51.84
38033;BME280;23841;48.524;1.342;2023-05-03T07:30:38;99899.47;;;15.63;51.92
38033;BME280;23841;48.524;1.342;2023-05-03T07:33:03;99898.56;;;15.63;51.91
38033;BME280;23841;48.524;1.342;2023-05-03T07:35:29;99893.22;;;15.63;52.01
38033;BME280;23841;48.524;1.342;2023-05-03T07:37:55;99888.88;;;15.60;52.04
38033;BME280;23841;48.524;1.342;2023-05-03T07:40:21;99894.13;;;15.63;52.09
38033;BME280;23841;48.524;1.342;2023-05-03T07:42:46;99890.53;;;15.63;52.02
38033;BME280;23841;48.524;1.342;2023-05-03T07:45:12;99894.97;;;15.64;52.08
38033;BME280;23841;48.524;1.342;2023-05-03T07:47:37;99890.53;;;15.63;52.27
38033;BME280;23841;48.524;1.342;2023-05-03T07:50:05;99888.75;;;15.63;52.22
38033;BME280;23841;48.524;1.342;2023-05-03T07:52:38;99885.16;;;15.64;52.28
38033;BME280;23841;48.524;1.342;2023-05-03T07:55:05;99890.50;;;15.64;52.37
38033;BME280;23841;48.524;1.342;2023-05-03T07:57:31;99888.75;;;15.63;52.38
38033;BME280;23841;48.524;1.342;2023-05-03T07:59:56;99881.53;;;15.65;52.48
38033;BME280;23841;48.524;1.342;2023-05-03T08:02:22;99879.81;;;15.64;52.49
38033;BME280;23841;48.524;1.342;2023-05-03T08:04:47;99884.22;;;15.65;52.51
38033;BME280;23841;48.524;1.342;2023-05-03T08:07:14;99869.91;;;15.66;52.64
38033;BME280;23841;48.524;1.342;2023-05-03T08:09:40;99879.69;;;15.67;52.61
38033;BME280;23841;48.524;1.342;2023-05-03T08:12:06;99874.34;;;15.67;52.71
38033;BME280;23841;48.524;1.342;2023-05-03T08:14:31;99870.75;;;15.68;52.77
38033;BME280;23841;48.524;1.342;2023-05-03T08:16:58;99867.09;;;15.69;52.84
38033;BME280;23841;48.524;1.342;2023-05-03T08:19:24;99868.88;;;15.70;52.88
38033;BME280;23841;48.524;1.342;2023-05-03T08:21:49;99865.28;;;15.72;52.88
38033;BME280;23841;48.524;1.342;2023-05-03T08:24:16;99862.59;;;15.72;53.07
38033;BME280;23841;48.524;1.342;2023-05-03T08:26:41;99858.03;;;15.74;53.13
38033;BME280;23841;48.524;1.342;2023-05-03T08:29:09;99856.19;;;15.76;53.05
38033;BME280;23841;48.524;1.342;2023-05-03T08:31:34;99845.69;;;15.69;53.07
38033;BME280;23841;48.524;1.342;2023-05-03T08:34:00;99849.94;;;15.75;53.19
38033;BME280;23841;48.524;1.342;2023-05-03T08:36:25;99844.59;;;15.75;53.08
38033;BME280;23841;48.524;1.342;2023-05-03T08:38:51;99846.34;;;15.76;53.32
38033;BME280;23841;48.524;1.342;2023-05-03T08:41:28;99841.84;;;15.77;53.39
38033;BME280;23841;48.524;1.342;2023-05-03T08:43:55;99843.63;;;15.78;53.43
38033;BME280;23841;48.524;1.342;2023-05-03T08:46:21;99839.13;;;15.80;53.50
38033;BME280;23841;48.524;1.342;2023-05-03T08:48:48;99838.19;;;15.81;53.69
38033;BME280;23841;48.524;1.342;2023-05-03T08:51:15;99836.34;;;15.83;53.54
38033;BME280;23841;48.524;1.342;2023-05-03T08:53:42;99841.69;;;15.83;53.56
38033;BME280;23841;48.524;1.342;2023-05-03T08:56:08;99834.53;;;15.83;53.71
38033;BME280;23841;48.524;1.342;2023-05-03T08:58:35;99838.97;;;15.84;53.72
38033;BME280;23841;48.524;1.342;2023-05-03T09:01:06;99836.22;;;15.86;53.60
38033;BME280;23841;48.524;1.342;2023-05-03T09:03:33;99828.19;;;15.86;53.88
38033;BME280;23841;48.524;1.342;2023-05-03T09:05:59;99836.09;;;15.89;53.96
38033;BME280;23841;48.524;1.342;2023-05-03T09:08:29;99829.84;;;15.90;54.02
38033;BME280;23841;48.524;1.342;2023-05-03T09:10:56;99828.91;;;15.91;54.11
38033;BME280;23841;48.524;1.342;2023-05-03T09:13:29;99822.63;;;15.92;53.89
38033;BME280;23841;48.524;1.342;2023-05-03T09:15:56;99817.28;;;15.92;53.89
38033;BME280;23841;48.524;1.342;2023-05-03T09:18:22;99811.94;;;15.91;54.10
38033;BME280;23841;48.524;1.342;2023-05-03T09:20:49;99810.97;;;15.93;54.11
38033;BME280;23841;48.524;1.342;2023-05-03T09:23:33;99816.13;;;15.99;54.29
38033;BME280;23841;48.524;1.342;2023-05-03T09:25:59;99814.25;;;16.01;54.40
38033;BME280;23841;48.524;1.342;2023-05-03T09:28:25;99806.09;;;16.04;54.41
38033;BME280;23841;48.524;1.342;2023-05-03T09:31:03;99812.28;;;16.07;54.47
38033;BME280;23841;48.524;1.342;2023-05-03T09:33:29;99797.97;;;16.08;54.60
38033;BME280;23841;48.524;1.342;2023-05-03T09:35:59;99805.03;;;16.09;54.65
38033;BME280;23841;48.524;1.342;2023-05-03T09:38:32;99791.59;;;16.10;54.86
38033;BME280;23841;48.524;1.342;2023-05-03T09:40:58;99797.59;;;16.17;54.64
38033;BME280;23841;48.524;1.342;2023-05-03T09:43:24;99807.28;;;16.21;54.58
38033;BME280;23841;48.524;1.342;2023-05-03T09:45:49;99807.06;;;16.27;54.76
38033;BME280;23841;48.524;1.342;2023-05-03T09:48:16;99806.25;;;16.25;54.76
38033;BME280;23841;48.524;1.342;2023-05-03T09:50:42;99808.66;;;16.33;54.89
38033;BME280;23841;48.524;1.342;2023-05-03T09:53:08;99815.72;;;16.35;55.00
38033;BME280;23841;48.524;1.342;2023-05-03T09:55:38;99799.50;;;16.38;54.97
38033;BME280;23841;48.524;1.342;2023-05-03T09:58:04;99803.81;;;16.43;54.76
38033;BME280;23841;48.524;1.342;2023-05-03T10:00:37;99809.06;;;16.46;54.88
38033;BME280;23841;48.524;1.342;2023-05-03T10:03:07;99808.94;;;16.49;55.06
38033;BME280;23841;48.524;1.342;2023-05-03T10:08:09;99796.22;;;16.54;54.90
38033;BME280;23841;48.524;1.342;2023-05-03T10:10:38;99795.25;;;16.57;54.81
38033;BME280;23841;48.524;1.342;2023-05-03T10:13:06;99794.13;;;16.62;54.72
38033;BME280;23841;48.524;1.342;2023-05-03T10:15:32;99761.63;;;16.48;54.67
38033;BME280;23841;48.524;1.342;2023-05-03T10:18:01;99797.53;;;16.67;54.78
38033;BME280;23841;48.524;1.342;2023-05-03T10:20:47;99792.03;;;16.70;54.63
38033;BME280;23841;48.524;1.342;2023-05-03T10:23:16;99792.69;;;16.76;54.46
38033;BME280;23841;48.524;1.342;2023-05-03T10:28:37;99779.13;;;16.80;54.54
38033;BME280;23841;48.524;1.342;2023-05-03T10:31:03;99776.19;;;16.86;54.44
38033;BME280;23841;48.524;1.342;2023-05-03T10:33:32;99774.38;;;16.87;54.46
38033;BME280;23841;48.524;1.342;2023-05-03T10:36:05;99767.09;;;16.91;54.86
38033;BME280;23841;48.524;1.342;2023-05-03T10:38:32;99766.94;;;16.95;54.83
38033;BME280;23841;48.524;1.342;2023-05-03T10:40:58;99761.50;;;16.97;54.58
38033;BME280;23841;48.524;1.342;2023-05-03T10:45:59;99754.06;;;17.03;54.52
38033;BME280;23841;48.524;1.342;2023-05-03T10:48:25;99748.50;;;17.08;54.00
38033;BME280;23841;48.524;1.342;2023-05-03T10:50:53;99751.13;;;17.10;54.06
38033;BME280;23841;48.524;1.342;2023-05-03T10:56:09;99743.78;;;17.15;53.74
38033;BME280;23841;48.524;1.342;2023-05-03T10:58:36;99733.03;;;17.15;53.80
38033;BME280;23841;48.524;1.342;2023-05-03T11:01:04;99741.75;;;17.20;53.75
38033;BME280;23841;48.524;1.342;2023-05-03T11:03:43;99736.28;;;17.23;54.04
38033;BME280;23841;48.524;1.342;2023-05-03T11:06:28;99728.16;;;17.25;53.94
38033;BME280;23841;48.524;1.342;2023-05-03T11:08:53;99726.03;;;17.31;53.63
38033;BME280;23841;48.524;1.342;2023-05-03T11:11:20;99727.81;;;17.32;53.64
38033;BME280;23841;48.524;1.342;2023-05-03T11:13:46;99724.19;;;17.33;53.46
38033;BME280;23841;48.524;1.342;2023-05-03T11:16:12;99721.28;;;17.38;53.41
38033;BME280;23841;48.524;1.342;2023-05-03T11:18:37;99715.75;;;17.43;53.27
38033;BME280;23841;48.524;1.342;2023-05-03T11:21:03;99722.84;;;17.44;53.00
38033;BME280;23841;48.524;1.342;2023-05-03T11:23:28;99706.66;;;17.45;53.27
38033;BME280;23841;48.524;1.342;2023-05-03T11:25:54;99700.22;;;17.49;52.80
38033;BME280;23841;48.524;1.342;2023-05-03T11:28:22;99703.66;;;17.53;52.38
38033;BME280;23841;48.524;1.342;2023-05-03T11:30:48;99701.63;;;17.58;52.10
38033;BME280;23841;48.524;1.342;2023-05-03T11:33:15;99693.59;;;17.58;52.16
38033;BME280;23841;48.524;1.342;2023-05-03T11:35:40;99698.97;;;17.58;52.72
38033;BME280;23841;48.524;1.342;2023-05-03T11:38:06;99701.50;;;17.61;52.28
38033;BME280;23841;48.524;1.342;2023-05-03T11:40:32;99683.44;;;17.65;51.53
38033;BME280;23841;48.524;1.342;2023-05-03T11:42:58;99685.09;;;17.67;51.43
38033;BME280;23841;48.524;1.342;2023-05-03T11:45:32;99675.16;;;17.69;51.24
38033;BME280;23841;48.524;1.342;2023-05-03T11:48:03;99676.91;;;17.70;51.48
38033;BME280;23841;48.524;1.342;2023-05-03T11:53:16;99664.13;;;17.75;51.98
38033;BME280;23841;48.524;1.342;2023-05-03T11:55:47;99664.13;;;17.75;52.00
38033;BME280;23841;48.524;1.342;2023-05-03T11:58:17;99664.00;;;17.79;51.59
38033;BME280;23841;48.524;1.342;2023-05-03T12:00:45;99660.22;;;17.83;51.69
38033;BME280;23841;48.524;1.342;2023-05-03T12:03:27;99662.84;;;17.84;51.93
38033;BME280;23841;48.524;1.342;2023-05-03T12:05:54;99652.09;;;17.84;51.47
38033;BME280;23841;48.524;1.342;2023-05-03T12:08:20;99650.13;;;17.88;50.94
38033;BME280;23841;48.524;1.342;2023-05-03T12:10:47;99640.19;;;17.90;50.61
38033;BME280;23841;48.524;1.342;2023-05-03T12:13:13;99636.63;;;17.89;50.86
38033;BME280;23841;48.524;1.342;2023-05-03T12:15:39;99651.63;;;17.95;51.07
38033;BME280;23841;48.524;1.342;2023-05-03T12:18:09;99644.38;;;17.97;50.77
38033;BME280;23841;48.524;1.342;2023-05-03T12:20:36;99631.63;;;18.01;51.04
38033;BME280;23841;48.524;1.342;2023-05-03T12:23:07;99639.66;;;18.02;50.98
38033;BME280;23841;48.524;1.342;2023-05-03T12:25:36;99631.53;;;18.04;50.66
38033;BME280;23841;48.524;1.342;2023-05-03T12:28:04;99630.50;;;18.06;50.52
38033;BME280;23841;48.524;1.342;2023-05-03T12:30:30;99624.16;;;18.07;50.56
38033;BME280;23841;48.524;1.342;2023-05-03T12:32:56;99635.72;;;18.10;50.70
38033;BME280;23841;48.524;1.342;2023-05-03T12:35:22;99629.53;;;18.07;50.48
38033;BME280;23841;48.524;1.342;2023-05-03T12:37:49;99626.41;;;18.17;50.18
38033;BME280;23841;48.524;1.342;2023-05-03T12:40:16;99631.81;;;18.17;50.35
38033;BME280;23841;48.524;1.342;2023-05-03T12:42:42;99629.03;;;18.18;50.42
38033;BME280;23841;48.524;1.342;2023-05-03T12:45:08;99625.34;;;18.21;50.15
38033;BME280;23841;48.524;1.342;2023-05-03T12:47:34;99624.41;;;18.22;50.17
38033;BME280;23841;48.524;1.342;2023-05-03T12:50:03;99626.13;;;18.23;50.62
38033;BME280;23841;48.524;1.342;2023-05-03T12:52:29;99619.81;;;18.24;50.57
38033;BME280;23841;48.524;1.342;2023-05-03T12:54:57;99610.63;;;18.28;50.76
38033;BME280;23841;48.524;1.342;2023-05-03T12:57:23;99609.63;;;18.31;50.38
38033;BME280;23841;48.524;1.342;2023-05-03T12:59:49;99603.44;;;18.29;50.15
38033;BME280;23841;48.524;1.342;2023-05-03T13:02:20;99608.59;;;18.33;50.80
38033;BME280;23841;48.524;1.342;2023-05-03T13:04:47;99604.91;;;18.36;51.17
38033;BME280;23841;48.524;1.342;2023-05-03T13:07:15;99597.69;;;18.36;50.58
38033;BME280;23841;48.524;1.342;2023-05-03T13:09:43;99595.78;;;18.38;50.95
38033;BME280;23841;48.524;1.342;2023-05-03T13:12:09;99592.97;;;18.41;50.92
38033;BME280;23841;48.524;1.342;2023-05-03T13:14:35;99591.06;;;18.43;50.99
38033;BME280;23841;48.524;1.342;2023-05-03T13:17:00;99591.88;;;18.46;49.99
38033;BME280;23841;48.524;1.342;2023-05-03T13:19:27;99590.91;;;18.47;50.31
38033;BME280;23841;48.524;1.342;2023-05-03T13:21:52;99585.53;;;18.47;50.15
38033;BME280;23841;48.524;1.342;2023-05-03T13:24:18;99597.09;;;18.49;50.85
38033;BME280;23841;48.524;1.342;2023-05-03T13:26:43;99584.41;;;18.51;49.87